AirNav   TITAN Aviation Fuels
 
 575 users online  

1TA7 Thompson Field Airport
Canton, Texas, USA

GOING TO CANTON?


FAA INFORMATION EFFECTIVE 30 DECEMBER 2021

Location

FAA Identifier: 1TA7
Lat/Long: 32-36-57.0000N 095-52-05.1750W
32-36.950000N 095-52.086250W
32.6158333,-95.8681042
(estimated)
Elevation: 518 ft. / 158 m (estimated)
Variation: 06E (1990)
From city: 4 miles N of CANTON, TX
Time zone: UTC -6 (UTC -5 during Daylight Saving Time)
Zip code: 75103

Airport Operations

Airport use: Private use. Permission required prior to landing
Activation date: 07/1995
Control tower: no
ARTCC: FORT WORTH CENTER
FSS: FORT WORTH FLIGHT SERVICE STATION
Attendance: MON-FRI 0800-1700
Wind indicator: yes
Segmented circle: no
Beacon: white-green (lighted land airport)
Operates sunset to sunrise.

Nearby radio navigation aids

VOR radial/distance  VOR name  Freq  Var
TYRr298/28.2TYLER VOR/DME114.2006E
CQYr028/31.3CEDAR CREEK VORTAC114.8006E
FZTr326/36.7FRANKSTON VOR/DME111.4006E
SLRr197/38.6SULPHUR SPRINGS VOR/DME109.0008E

 
NDB name  Hdg/Dist  Freq  Var  ID
CROSSROADS360/33.421508ECSZ -.-. ... --..
MESQUITE106/35.324803EPQF .--. --.- ..-.
AMBASSADOR266/38.240407EABG .- -... --.

Airport Services

Fuel available: 100LL
Parking: hangars
Airframe service: MAJOR
Powerplant service: MAJOR

Runway Information

Runway 13/31

Dimensions: 2500 x 40 ft. / 762 x 12 m
Surface: asphalt
RUNWAY 13  RUNWAY 31
Latitude: 32-37.095833N32-36.804167N
Longitude: 095-52.258333W095-51.914167W
Elevation: 513.0 ft.511.0 ft.
Traffic pattern: leftright

Airport Ownership and Management from official FAA records

Ownership: Privately-owned
Owner: THOMPSON AIRFIELD, LLC
690 VZCR 3119
EDGEWOOD, TX 75117
Phone 903-896-4647
Manager: MARK THOMPSON
690 VZCR 3119
EDGEWOOD, TX 75117
Phone 903-896-4647

Airport Operational Statistics

Aircraft based on the field: 53
Single engine airplanes: 48
Multi engine airplanes: 3
Helicopters: 2
    

Additional Remarks

PPR TO LAND. AGRICULTURE ACFT OPR ON FLD.
FOR CD CTC FORT WORTH ARTCC AT 817-858-7584.

Instrument Procedures

There are no published instrument procedures at 1TA7.

Some nearby airports with instrument procedures:

KJDD - Wood County Airport - Collins Field (20 nm E)
KTRL - Terrell Municipal Airport (21 nm W)
F44 - Athens Municipal Airport (27 nm S)
KTYR - Tyler Pounds Regional Airport (28 nm SE)
KGVT - Majors Airport (29 nm N)
 
Loc | Ops | Rwys | IFR | FBO | Links
Com | Nav | Svcs | Stats | Notes

City of Fort Worth
 
Area around 1TA7 (Thompson Field Airport)
 
Road maps at: MapQuest Bing Google
 
Aerial photo
WARNING: Photo may not be current or correct
Aerial photo of 1TA7 (Thompson Field Airport)
Photo by Jon Hicks
Taken in August 2010
looking southeast.

Do you have a better or more recent aerial photo of Thompson Field Airport that you would like to share? If so, please send us your photo.

 
Sectional chart

 
Airport distance calculator
Flying to Thompson Field Airport? Find the distance to fly.

From to 1TA7

Sunrise and sunset
Times for 27-Jan-2022
 Local
(UTC-6)
 Zulu
(UTC)
Morning civil twilight06:5612:56
Sunrise07:2213:22
Sunset17:5023:50
Evening civil twilight18:1700:17

Current date and time
Zulu (UTC)  27-Jan-2022 06:37:31
Local (UTC-6)  27-Jan-2022 00:37:31
 
METAR
KJDD 
20nm E 
270615Z AUTO 00000KT 10SM OVC110 04/M05 A3031 RMK AO2
KTRL 
21nm W 
270553Z AUTO 00000KT 10SM BKN075 OVC100 06/M06 A3032 RMK AO2 SLP268 T00611061 10072 20050 401001022 51004 $
KF44 
27nm S 
270615Z AUTO 10004KT 10SM BKN120 05/M04 A3029 RMK AO2
KTYR 
28nm SE 
270553Z AUTO 08005KT 10SM OVC110 05/M06 A3031 RMK AO2 SLP264 T00501056 10083 20050 401061006 50005
KGVT 
29nm N 
270615Z AUTO 00000KT 10SM BKN090 OVC110 04/M06 A3031 RMK AO2 TSNO T00431060
KF46 
34nm NW 
270615Z AUTO 10007KT 10SM SCT050 BKN060 OVC080 05/M07 A3030 RMK AO2 T00521069
KHQZ 
34nm W 
270615Z AUTO 10005KT 10SM BKN070 BKN080 OVC095 06/M06 A3029 RMK AO1 T00601060
KSLR 
35nm N 
270615Z AUTO 11004KT 10SM SCT070 OVC090 04/M08 A3033 RMK AO2 T00421077
TAF
KTYR 
28nm SE 
270520Z 2706/2806 VRB04KT P6SM OVC120 FM270900 VRB03KT P6SM BKN050 FM271500 VRB04KT P6SM SCT050 SCT250 FM271800 VRB03KT P6SM SCT050 BKN250 FM280000 VRB04KT P6SM SCT180 OVC250
NOTAMs
Click for the latest NOTAMs
NOTAMs are issued by the DoD/FAA and will open in a separate window not controlled by AirNav.

 

 
 

Would you like to see your business listed on this page?

 If your business provides an interesting product or service to pilots, flight crews, aircraft, or users of the Thompson Field Airport, you should consider listing it here.  To start the listing process, click on the button below
 
Add a business
 

Other Pages about Thompson Field Airport

www.tailwindairpark.com
 
Update a link
 
Copyright © AirNav, LLC. All rights reserved. Privacy Policy  Contact